Terminal Aerodrome Forecast
Issued by NWS

Home | Current Version | Previous Version | Text Only | Print | Product List | Glossary On
Versions: 1 2 3 4 5 6 7 8 9 10 11 12 13 14 15 16 17 18 19 20
000
FTUS43 KGRR 222352
TAFLAN
TAF
KLAN 222352Z 2300/2324 08008KT P6SM OVC060
     FM230300 09008KT P6SM OVC025
     FM230600 10009KT P6SM VCSH OVC008
     FM230900 12009KT P6SM -RA OVC006
     FM231100 14008KT 5SM -RA BR OVC004
     FM231700 23009KT P6SM OVC008
     FM232100 26009KT P6SM OVC015=

USA.gov is the U.S. government's official web portal to all federal, state and local government web resources and services.